Time;durP1;ratioP1;P1;durP2;ratioP2;P2;SDS_P1;SDS_P2;PMS_P1;PMS_P2;Temp;Humidity;BMP_temperature;BMP_pressure;BME280_temperature;BME280_humidity;BME280_pressure;Samples;Min_cycle;Max_cycle;Signal;HPM_P1;HPM_P2
2022/12/13 00:02:01;;;;;;;19.80;10.55;;;;;;;;;;4980150;28;20136;-67
2022/12/13 00:04:27;;;;;;;19.33;10.77;;;;;;;;;;4980110;28;20043;-67
2022/12/13 00:06:53;;;;;;;18.90;10.73;;;;;;;;;;4979986;28;20049;-67
2022/12/13 00:09:19;;;;;;;17.38;10.25;;;;;;;;;;4980906;28;20120;-69
2022/12/13 00:11:44;;;;;;;18.48;10.27;;;;;;;;;;4979957;28;20112;-68
2022/12/13 00:14:12;;;;;;;16.55;10.52;;;;;;;;;;4980255;28;20050;-68
2022/12/13 00:16:38;;;;;;;21.52;11.90;;;;;;;;;;4980804;28;20073;-66
2022/12/13 00:19:04;;;;;;;27.08;12.27;;;;;;;;;;4978597;28;20092;-67
2022/12/13 00:21:32;;;;;;;16.25;9.02;;;;;;;;;;4980527;28;20054;-68
2022/12/13 00:23:59;;;;;;;22.50;11.80;;;;;;;;;;4980908;28;20142;-67
2022/12/13 00:26:28;;;;;;;21.20;11.93;;;;;;;;;;4979785;28;20039;-70
2022/12/13 00:28:54;;;;;;;13.98;7.85;;;;;;;;;;4980096;28;20077;-68
2022/12/13 00:31:22;;;;;;;22.83;10.90;;;;;;;;;;4980881;28;20086;-67
2022/12/13 00:33:48;;;;;;;20.33;11.68;;;;;;;;;;4980317;28;20056;-66
2022/12/13 00:36:14;;;;;;;15.48;9.15;;;;;;;;;;4979770;28;20038;-67
2022/12/13 00:38:39;;;;;;;19.80;10.95;;;;;;;;;;4980503;28;20054;-67
2022/12/13 00:41:19;;;;;;;16.83;9.63;;;;;;;;;;4980662;28;20046;-70
2022/12/13 00:43:45;;;;;;;21.75;11.57;;;;;;;;;;4979958;28;20646;-67
2022/12/13 00:46:18;;;;;;;16.10;9.23;;;;;;;;;;4980943;28;20045;-69
2022/12/13 00:48:48;;;;;;;15.95;10.52;;;;;;;;;;4978942;28;20050;-67
2022/12/13 00:51:14;;;;;;;18.80;11.02;;;;;;;;;;4980420;28;20050;-68
2022/12/13 00:53:39;;;;;;;21.42;11.48;;;;;;;;;;4981969;28;20524;-68
2022/12/13 00:56:15;;;;;;;13.82;9.10;;;;;;;;;;4983829;28;20042;-69
2022/12/13 00:58:41;;;;;;;16.42;9.40;;;;;;;;;;4982877;28;20526;-67
2022/12/13 01:01:10;;;;;;;18.10;9.60;;;;;;;;;;4983773;28;20130;-68
2022/12/13 01:03:36;;;;;;;15.45;9.32;;;;;;;;;;4983147;28;20112;-69
2022/12/13 01:06:11;;;;;;;16.70;8.63;;;;;;;;;;4983921;28;20053;-70
2022/12/13 01:08:37;;;;;;;17.50;9.50;;;;;;;;;;4984042;28;20059;-68
2022/12/13 01:11:04;;;;;;;16.05;8.25;;;;;;;;;;4982421;28;20050;-67
2022/12/13 01:13:30;;;;;;;18.20;9.88;;;;;;;;;;4983634;28;20038;-67
2022/12/13 01:15:55;;;;;;;17.52;10.13;;;;;;;;;;4983569;28;20072;-67
2022/12/13 01:18:21;;;;;;;15.30;9.73;;;;;;;;;;4983921;28;20136;-67
2022/12/13 01:21:04;;;;;;;18.85;10.02;;;;;;;;;;4981989;28;20043;-70
2022/12/13 01:23:30;;;;;;;14.88;9.02;;;;;;;;;;4983027;28;20050;-67
2022/12/13 01:25:55;;;;;;;16.60;8.93;;;;;;;;;;4983257;28;20182;-67
2022/12/13 01:28:21;;;;;;;20.33;10.13;;;;;;;;;;4983765;28;20093;-68
2022/12/13 01:30:57;;;;;;;18.00;9.52;;;;;;;;;;4980243;28;20561;-69
2022/12/13 01:33:24;;;;;;;18.48;9.73;;;;;;;;;;4980442;28;20116;-69
2022/12/13 01:35:50;;;;;;;8.68;5.30;;;;;;;;;;4981449;28;20507;-68
2022/12/13 01:38:16;;;;;;;15.10;8.65;;;;;;;;;;4980909;28;20050;-67
2022/12/13 01:40:47;;;;;;;21.08;8.27;;;;;;;;;;4981161;28;20054;-70
2022/12/13 01:43:15;;;;;;;17.48;9.43;;;;;;;;;;4982635;28;20137;-70
2022/12/13 01:45:40;;;;;;;15.73;8.40;;;;;;;;;;4983297;28;20142;-67
2022/12/13 01:48:13;;;;;;;15.25;9.43;;;;;;;;;;4983038;28;20081;-67
2022/12/13 01:50:42;;;;;;;13.02;8.10;;;;;;;;;;4983259;28;20065;-67
2022/12/13 01:53:12;;;;;;;17.92;9.43;;;;;;;;;;4981148;28;21195;-69
2022/12/13 01:55:39;;;;;;;20.92;10.48;;;;;;;;;;4981510;28;20038;-68
2022/12/13 01:58:05;;;;;;;12.38;8.10;;;;;;;;;;4982917;28;20154;-70
2022/12/13 02:00:34;;;;;;;20.58;11.88;;;;;;;;;;4983104;28;20042;-67
2022/12/13 02:03:01;;;;;;;22.20;12.32;;;;;;;;;;4980747;28;20335;-67
2022/12/13 02:05:33;;;;;;;14.93;8.40;;;;;;;;;;4982093;28;20077;-67
2022/12/13 02:08:01;;;;;;;20.57;13.00;;;;;;;;;;4982633;28;20154;-66
2022/12/13 02:10:27;;;;;;;15.57;8.65;;;;;;;;;;4982132;28;20046;-69
2022/12/13 02:12:53;;;;;;;25.75;11.63;;;;;;;;;;4981505;28;20046;-67
2022/12/13 02:15:20;;;;;;;14.13;8.20;;;;;;;;;;4981952;28;20049;-68
2022/12/13 02:18:03;;;;;;;17.42;9.60;;;;;;;;;;4975676;28;20511;-70
2022/12/13 02:20:47;;;;;;;11.52;7.20;;;;;;;;;;4982089;28;20095;-67
2022/12/13 02:23:19;;;;;;;14.32;8.82;;;;;;;;;;4978931;28;20498;-67
2022/12/13 02:26:06;;;;;;;21.75;10.32;;;;;;;;;;4981583;28;20057;-69
2022/12/13 02:29:29;;;;;;;19.48;9.43;;;;;;;;;;4982515;28;20507;-67
2022/12/13 02:32:04;;;;;;;14.70;7.95;;;;;;;;;;4929997;29;20044;-66
2022/12/13 02:34:40;;;;;;;14.98;9.10;;;;;;;;;;4922004;28;20054;-69
2022/12/13 02:37:06;;;;;;;12.18;8.85;;;;;;;;;;4956484;28;20514;-66
2022/12/13 02:39:37;;;;;;;21.05;11.98;;;;;;;;;;4980606;28;20051;-67
2022/12/13 02:42:18;;;;;;;24.85;11.82;;;;;;;;;;4981438;28;20141;-67
2022/12/13 02:44:56;;;;;;;14.82;10.32;;;;;;;;;;4981499;28;20053;-68
2022/12/13 02:47:24;;;;;;;14.85;7.68;;;;;;;;;;4980947;28;20037;-66
2022/12/13 02:49:56;;;;;;;9.95;4.85;;;;;;;;;;4982214;28;20987;-64
2022/12/13 02:52:25;;;;;;;9.05;6.53;;;;;;;;;;4981029;28;20054;-65
2022/12/13 02:54:54;;;;;;;10.25;6.50;;;;;;;;;;4981296;28;20060;-66
2022/12/13 02:57:35;;;;;;;12.10;7.60;;;;;;;;;;4980960;28;20343;-64
2022/12/13 03:00:13;;;;;;;15.82;7.88;;;;;;;;;;4981652;28;20050;-65
2022/12/13 03:03:07;;;;;;;12.65;7.63;;;;;;;;;;4980756;28;20056;-65
2022/12/13 03:08:51;;;;;;;13.38;7.60;;;;;;;;;;4980677;28;20066;-66
2022/12/13 03:11:19;;;;;;;10.15;6.57;;;;;;;;;;4955103;28;20038;-65
2022/12/13 03:13:53;;;;;;;13.63;8.32;;;;;;;;;;4980797;28;20074;-66
2022/12/13 03:16:21;;;;;;;15.63;7.90;;;;;;;;;;4980747;28;20042;-65
2022/12/13 03:18:47;;;;;;;5.95;4.05;;;;;;;;;;4980805;28;20046;-65
2022/12/13 03:21:13;;;;;;;10.38;6.53;;;;;;;;;;4980471;28;20064;-67
2022/12/13 03:23:39;;;;;;;10.43;7.20;;;;;;;;;;4980680;28;20050;-66
2022/12/13 03:26:25;;;;;;;12.35;7.47;;;;;;;;;;4981423;28;20050;-65
2022/12/13 03:28:52;;;;;;;17.75;6.68;;;;;;;;;;4980636;28;20088;-68
2022/12/13 03:31:18;;;;;;;11.15;6.82;;;;;;;;;;4980355;28;20053;-64
2022/12/13 03:33:43;;;;;;;15.50;7.32;;;;;;;;;;4980461;28;20495;-65
2022/12/13 03:36:10;;;;;;;11.07;6.22;;;;;;;;;;4981359;28;20049;-65
2022/12/13 03:38:37;;;;;;;13.40;8.07;;;;;;;;;;4981254;28;20077;-66
2022/12/13 03:41:06;;;;;;;8.13;5.75;;;;;;;;;;4980556;28;20065;-69
2022/12/13 03:43:32;;;;;;;8.73;5.88;;;;;;;;;;4980497;28;20054;-67
2022/12/13 03:46:00;;;;;;;11.52;7.60;;;;;;;;;;4980983;28;20053;-66
2022/12/13 03:48:25;;;;;;;10.50;6.32;;;;;;;;;;4981191;28;20038;-66
2022/12/13 03:50:52;;;;;;;8.45;5.80;;;;;;;;;;4980755;28;20042;-64
2022/12/13 03:53:18;;;;;;;13.80;8.57;;;;;;;;;;4982722;28;20047;-65
2022/12/13 03:55:43;;;;;;;11.02;5.30;;;;;;;;;;4984583;28;20050;-68
2022/12/13 03:58:09;;;;;;;7.88;4.65;;;;;;;;;;4982327;28;20045;-65
2022/12/13 04:00:34;;;;;;;14.30;8.93;;;;;;;;;;4979704;28;20050;-68
2022/12/13 04:03:00;;;;;;;16.95;7.63;;;;;;;;;;4978480;28;20088;-65
2022/12/13 04:05:25;;;;;;;9.45;6.80;;;;;;;;;;4978054;28;20073;-64
2022/12/13 04:07:50;;;;;;;12.32;6.97;;;;;;;;;;4980425;28;20108;-65
2022/12/13 04:10:16;;;;;;;11.07;7.03;;;;;;;;;;4981225;28;20049;-65
2022/12/13 04:15:25;;;;;;;9.27;6.05;;;;;;;;;;4994846;28;20046;-65
2022/12/13 04:17:51;;;;;;;17.83;7.93;;;;;;;;;;4979465;28;20724;-65
2022/12/13 04:20:16;;;;;;;11.25;6.40;;;;;;;;;;4980892;28;20093;-65
2022/12/13 04:22:42;;;;;;;7.03;4.93;;;;;;;;;;4979790;28;20061;-66
2022/12/13 04:25:07;;;;;;;11.82;7.95;;;;;;;;;;4979687;28;20115;-67
2022/12/13 04:27:33;;;;;;;12.43;7.63;;;;;;;;;;4979976;28;20715;-65
2022/12/13 04:29:58;;;;;;;8.70;6.53;;;;;;;;;;4984441;28;20515;-67
2022/12/13 04:32:24;;;;;;;10.48;6.60;;;;;;;;;;4983753;28;20038;-64
2022/12/13 04:34:49;;;;;;;17.25;8.10;;;;;;;;;;4982501;28;20883;-65
2022/12/13 04:37:15;;;;;;;27.52;11.57;;;;;;;;;;4983507;28;20050;-66
2022/12/13 04:39:40;;;;;;;12.55;7.03;;;;;;;;;;4983005;28;20116;-66
2022/12/13 04:42:06;;;;;;;9.48;4.43;;;;;;;;;;4983675;28;20547;-65
2022/12/13 04:44:31;;;;;;;10.85;6.70;;;;;;;;;;4984295;28;20579;-65
2022/12/13 04:46:57;;;;;;;10.93;6.30;;;;;;;;;;4982501;28;20047;-65
2022/12/13 04:49:22;;;;;;;7.95;5.95;;;;;;;;;;4998992;28;20424;-64
2022/12/13 04:51:48;;;;;;;7.32;5.05;;;;;;;;;;4984102;28;20054;-65
2022/12/13 04:54:13;;;;;;;11.27;7.32;;;;;;;;;;4983428;28;20073;-65
2022/12/13 04:56:38;;;;;;;13.60;6.07;;;;;;;;;;4984264;28;20113;-65
2022/12/13 04:59:04;;;;;;;9.85;5.60;;;;;;;;;;4982593;28;20065;-64
2022/12/13 05:01:30;;;;;;;11.13;6.97;;;;;;;;;;4984002;28;20128;-66
2022/12/13 05:03:55;;;;;;;12.15;7.35;;;;;;;;;;4983091;28;20073;-65
2022/12/13 05:06:21;;;;;;;9.35;6.88;;;;;;;;;;4983974;28;20046;-67
2022/12/13 05:08:46;;;;;;;4.55;4.15;;;;;;;;;;4981051;28;20455;-67
2022/12/13 05:11:12;;;;;;;10.27;6.35;;;;;;;;;;4983528;28;20046;-67
2022/12/13 05:13:37;;;;;;;13.45;5.35;;;;;;;;;;4983053;28;20046;-67
2022/12/13 05:16:06;;;;;;;9.43;4.97;;;;;;;;;;4983483;28;20050;-67
2022/12/13 05:18:32;;;;;;;5.35;4.13;;;;;;;;;;4984099;28;20050;-67
2022/12/13 05:21:02;;;;;;;14.73;8.70;;;;;;;;;;4982031;28;20042;-67
2022/12/13 05:23:28;;;;;;;14.35;7.45;;;;;;;;;;4983089;28;20050;-67
2022/12/13 05:25:53;;;;;;;10.43;6.10;;;;;;;;;;4983659;28;20438;-67
2022/12/13 05:28:19;;;;;;;7.63;5.65;;;;;;;;;;4983884;28;20438;-67
2022/12/13 05:30:44;;;;;;;12.18;7.55;;;;;;;;;;4981973;28;20054;-68
2022/12/13 05:33:10;;;;;;;8.52;4.97;;;;;;;;;;4982856;28;20046;-67
2022/12/13 05:35:36;;;;;;;11.95;8.18;;;;;;;;;;4983563;28;20543;-67
2022/12/13 05:38:02;;;;;;;8.88;6.15;;;;;;;;;;4982776;28;20057;-67
2022/12/13 05:40:30;;;;;;;10.57;5.68;;;;;;;;;;4979894;28;20053;-67
2022/12/13 05:43:01;;;;;;;6.63;4.88;;;;;;;;;;4970282;28;20952;-68
2022/12/13 05:45:28;;;;;;;13.98;7.85;;;;;;;;;;4967637;28;20042;-68
2022/12/13 05:47:54;;;;;;;10.85;7.28;;;;;;;;;;4982320;28;20420;-68
2022/12/13 05:50:20;;;;;;;14.02;7.65;;;;;;;;;;4982325;28;20104;-68
2022/12/13 05:52:45;;;;;;;12.73;7.13;;;;;;;;;;4978881;28;20046;-68
2022/12/13 05:55:12;;;;;;;8.90;5.28;;;;;;;;;;4980758;28;20050;-68
2022/12/13 05:57:37;;;;;;;12.52;7.03;;;;;;;;;;4980306;28;20061;-68
2022/12/13 06:00:05;;;;;;;16.27;9.07;;;;;;;;;;4981294;28;21125;-68
2022/12/13 06:02:42;;;;;;;19.00;10.70;;;;;;;;;;4980649;28;20447;-69
2022/12/13 06:05:09;;;;;;;6.30;4.75;;;;;;;;;;4980221;28;20136;-68
2022/12/13 06:07:35;;;;;;;12.18;9.27;;;;;;;;;;4981912;28;20046;-68
2022/12/13 06:10:01;;;;;;;9.23;3.85;;;;;;;;;;4980867;28;20533;-68
2022/12/13 06:12:27;;;;;;;12.27;8.20;;;;;;;;;;4980526;28;20517;-68
2022/12/13 06:14:52;;;;;;;7.57;5.22;;;;;;;;;;4980393;28;20057;-68
2022/12/13 06:17:18;;;;;;;18.17;10.23;;;;;;;;;;4982575;28;20050;-69
2022/12/13 06:19:45;;;;;;;13.20;6.72;;;;;;;;;;4982568;28;20133;-68
2022/12/13 06:22:11;;;;;;;10.23;7.45;;;;;;;;;;4981307;28;20048;-68
2022/12/13 06:24:36;;;;;;;2.97;2.75;;;;;;;;;;4981231;28;20416;-68
2022/12/13 06:27:04;;;;;;;9.20;5.60;;;;;;;;;;4980086;28;20057;-69
2022/12/13 06:29:29;;;;;;;13.57;8.45;;;;;;;;;;4981606;28;20057;-69
2022/12/13 06:31:57;;;;;;;10.23;6.22;;;;;;;;;;4981111;28;20061;-68
2022/12/13 06:34:25;;;;;;;6.15;4.25;;;;;;;;;;4980799;28;20455;-68
2022/12/13 06:36:50;;;;;;;10.77;7.63;;;;;;;;;;4980049;28;20142;-69
2022/12/13 06:39:16;;;;;;;13.95;8.32;;;;;;;;;;4979292;28;20068;-68
2022/12/13 06:41:41;;;;;;;15.18;7.20;;;;;;;;;;4981155;28;20060;-68
2022/12/13 06:44:07;;;;;;;18.75;9.48;;;;;;;;;;4981228;28;20137;-68
2022/12/13 06:46:33;;;;;;;12.35;7.53;;;;;;;;;;4982157;28;20074;-68
2022/12/13 06:48:58;;;;;;;24.98;13.70;;;;;;;;;;4980300;28;20050;-68
2022/12/13 06:51:24;;;;;;;22.42;9.93;;;;;;;;;;4980972;28;20054;-69
2022/12/13 06:53:49;;;;;;;17.83;9.63;;;;;;;;;;4995981;28;20061;-68
2022/12/13 06:56:15;;;;;;;16.80;8.52;;;;;;;;;;4981531;28;20396;-69
2022/12/13 06:58:41;;;;;;;18.65;10.50;;;;;;;;;;4980271;28;20054;-68
2022/12/13 07:01:13;;;;;;;18.23;9.63;;;;;;;;;;4978845;28;20166;-68
2022/12/13 07:03:39;;;;;;;13.48;8.60;;;;;;;;;;4978855;28;20137;-68
2022/12/13 07:06:13;;;;;;;10.43;7.20;;;;;;;;;;4979969;28;20081;-68
2022/12/13 07:08:40;;;;;;;9.32;5.93;;;;;;;;;;4974733;28;20134;-68
2022/12/13 07:11:05;;;;;;;11.65;6.30;;;;;;;;;;4969056;28;20058;-69
2022/12/13 07:13:32;;;;;;;15.82;9.70;;;;;;;;;;4978442;28;20050;-69
2022/12/13 07:15:59;;;;;;;8.35;4.53;;;;;;;;;;4981118;28;20056;-69
2022/12/13 07:18:25;;;;;;;9.57;5.80;;;;;;;;;;4979532;28;20128;-69
2022/12/13 07:20:51;;;;;;;18.85;10.25;;;;;;;;;;4979727;28;20749;-70
2022/12/13 07:23:16;;;;;;;11.65;7.45;;;;;;;;;;4980552;28;20056;-69
2022/12/13 07:25:53;;;;;;;22.95;12.55;;;;;;;;;;4980782;28;20046;-69
2022/12/13 07:28:19;;;;;;;22.80;11.25;;;;;;;;;;4980865;28;20483;-68
2022/12/13 07:30:45;;;;;;;20.10;10.88;;;;;;;;;;4995360;28;20049;-69
2022/12/13 07:33:11;;;;;;;17.15;10.13;;;;;;;;;;4979372;28;20053;-70
2022/12/13 07:35:37;;;;;;;10.63;7.50;;;;;;;;;;4980818;28;20061;-70
2022/12/13 07:38:08;;;;;;;14.75;8.50;;;;;;;;;;4978935;28;20506;-70
2022/12/13 07:40:37;;;;;;;10.27;6.72;;;;;;;;;;4981250;28;20133;-71
2022/12/13 07:43:03;;;;;;;14.55;9.75;;;;;;;;;;4978933;28;20057;-70
2022/12/13 07:45:28;;;;;;;19.23;10.88;;;;;;;;;;4980216;28;20042;-71
2022/12/13 07:47:54;;;;;;;16.77;8.35;;;;;;;;;;4980454;28;20184;-70
2022/12/13 07:50:20;;;;;;;9.82;6.63;;;;;;;;;;4981176;28;20042;-71
2022/12/13 07:52:49;;;;;;;15.85;10.00;;;;;;;;;;4962133;28;20129;-71
2022/12/13 07:55:16;;;;;;;15.13;8.32;;;;;;;;;;4979366;28;20495;-71
2022/12/13 07:57:44;;;;;;;10.45;7.13;;;;;;;;;;4980988;28;20886;-69
2022/12/13 08:00:10;;;;;;;15.25;7.25;;;;;;;;;;4980651;28;20110;-69
2022/12/13 08:02:40;;;;;;;14.73;8.60;;;;;;;;;;4982166;28;20437;-70
2022/12/13 08:05:06;;;;;;;9.50;5.90;;;;;;;;;;4986038;28;20411;-70
2022/12/13 08:07:31;;;;;;;12.48;7.43;;;;;;;;;;4986496;28;20058;-71
2022/12/13 08:09:57;;;;;;;15.45;8.68;;;;;;;;;;5001633;28;20054;-70
2022/12/13 08:12:22;;;;;;;15.32;8.38;;;;;;;;;;4986640;28;20046;-71
2022/12/13 08:14:47;;;;;;;15.65;9.95;;;;;;;;;;4986517;28;20058;-71
2022/12/13 08:17:13;;;;;;;16.73;8.73;;;;;;;;;;4985280;28;20050;-70
2022/12/13 08:19:39;;;;;;;16.08;9.40;;;;;;;;;;4985377;28;20156;-71
2022/12/13 08:22:05;;;;;;;16.48;8.93;;;;;;;;;;4987639;28;20046;-71
2022/12/13 08:24:30;;;;;;;18.13;9.63;;;;;;;;;;4987350;28;20042;-71
2022/12/13 08:27:00;;;;;;;15.75;7.25;;;;;;;;;;4985309;28;20046;-70
2022/12/13 08:29:27;;;;;;;16.20;9.52;;;;;;;;;;4986704;28;20939;-69
2022/12/13 08:31:52;;;;;;;15.63;9.05;;;;;;;;;;4986849;28;20211;-68
2022/12/13 08:34:17;;;;;;;16.38;7.93;;;;;;;;;;4986314;28;20064;-69
2022/12/13 08:36:43;;;;;;;18.95;8.48;;;;;;;;;;4987039;28;20050;-70
2022/12/13 08:39:08;;;;;;;13.68;7.53;;;;;;;;;;4984194;28;20133;-70
2022/12/13 08:41:34;;;;;;;11.25;7.40;;;;;;;;;;4987628;28;20093;-70
2022/12/13 08:43:59;;;;;;;13.32;7.82;;;;;;;;;;4985012;28;20104;-70
2022/12/13 08:46:24;;;;;;;17.83;8.88;;;;;;;;;;4987244;28;20039;-72
2022/12/13 08:48:52;;;;;;;16.98;8.85;;;;;;;;;;4984419;28;20046;-70
2022/12/13 08:51:22;;;;;;;23.63;10.25;;;;;;;;;;4986586;28;20554;-69
2022/12/13 08:53:49;;;;;;;14.43;8.00;;;;;;;;;;4986324;28;20510;-69
2022/12/13 08:56:14;;;;;;;11.15;7.15;;;;;;;;;;4987176;28;20054;-69
2022/12/13 08:58:41;;;;;;;17.95;9.45;;;;;;;;;;4986415;28;20388;-69
2022/12/13 09:01:09;;;;;;;11.13;7.43;;;;;;;;;;4984874;28;20061;-69
2022/12/13 09:03:36;;;;;;;10.63;6.15;;;;;;;;;;4986273;28;20054;-70
2022/12/13 09:06:10;;;;;;;18.13;9.38;;;;;;;;;;4986594;28;20092;-70
2022/12/13 09:08:39;;;;;;;15.35;8.63;;;;;;;;;;4985678;28;20068;-69
2022/12/13 09:11:05;;;;;;;17.02;8.98;;;;;;;;;;4986782;28;20066;-70
2022/12/13 09:13:33;;;;;;;11.90;5.22;;;;;;;;;;4986307;28;20058;-69
2022/12/13 09:16:07;;;;;;;10.60;5.85;;;;;;;;;;4984580;28;20060;-71
2022/12/13 09:18:33;;;;;;;11.98;5.93;;;;;;;;;;4982242;28;20567;-70
2022/12/13 09:20:59;;;;;;;12.98;6.63;;;;;;;;;;4982792;28;20129;-70
2022/12/13 09:23:24;;;;;;;11.82;7.45;;;;;;;;;;4981999;28;20993;-69
2022/12/13 09:25:59;;;;;;;15.07;6.95;;;;;;;;;;4982136;28;20050;-70
2022/12/13 09:28:25;;;;;;;12.68;6.72;;;;;;;;;;4982679;28;20050;-71
2022/12/13 09:30:51;;;;;;;15.90;9.63;;;;;;;;;;4982185;28;21154;-70
2022/12/13 09:33:16;;;;;;;6.22;4.38;;;;;;;;;;4980977;28;20046;-71
2022/12/13 09:35:42;;;;;;;10.95;6.88;;;;;;;;;;4983260;28;20042;-70
2022/12/13 09:38:07;;;;;;;13.20;7.47;;;;;;;;;;4982290;28;20053;-70
2022/12/13 09:40:36;;;;;;;13.20;7.40;;;;;;;;;;4982668;28;20046;-71
2022/12/13 09:43:02;;;;;;;12.20;7.00;;;;;;;;;;4981807;28;20523;-70
2022/12/13 09:45:28;;;;;;;16.65;7.90;;;;;;;;;;4982116;28;20049;-70
2022/12/13 09:47:55;;;;;;;13.98;6.40;;;;;;;;;;4982360;28;20657;-68
2022/12/13 09:50:26;;;;;;;15.95;9.38;;;;;;;;;;4982804;28;20042;-68
2022/12/13 09:52:53;;;;;;;13.48;7.22;;;;;;;;;;4980586;28;20081;-68
2022/12/13 09:55:28;;;;;;;11.65;7.43;;;;;;;;;;4981921;28;20050;-72
2022/12/13 09:57:54;;;;;;;11.48;6.20;;;;;;;;;;4981637;28;20392;-71
2022/12/13 10:00:22;;;;;;;15.65;6.80;;;;;;;;;;4982319;28;20591;-68
2022/12/13 10:02:51;;;;;;;14.80;7.88;;;;;;;;;;4978541;28;20577;-68
2022/12/13 10:05:24;;;;;;;11.98;6.82;;;;;;;;;;4981913;28;20125;-70
2022/12/13 10:07:52;;;;;;;13.45;7.35;;;;;;;;;;4982375;28;20129;-70
2022/12/13 10:10:18;;;;;;;14.77;8.88;;;;;;;;;;4982856;28;20125;-71
2022/12/13 10:12:45;;;;;;;14.05;8.68;;;;;;;;;;4981250;28;20436;-70
2022/12/13 10:15:14;;;;;;;16.67;9.70;;;;;;;;;;4982264;28;20550;-71
2022/12/13 10:17:40;;;;;;;15.25;8.32;;;;;;;;;;4981641;28;20076;-71
2022/12/13 10:20:14;;;;;;;10.60;6.10;;;;;;;;;;4980252;28;20491;-71
2022/12/13 10:22:40;;;;;;;13.68;8.18;;;;;;;;;;4981108;28;20086;-71
2022/12/13 10:25:06;;;;;;;18.63;8.60;;;;;;;;;;4981410;28;20561;-72
2022/12/13 10:27:36;;;;;;;24.00;11.05;;;;;;;;;;4981416;28;20054;-71
2022/12/13 10:30:11;;;;;;;22.30;10.90;;;;;;;;;;4981751;28;20054;-71
2022/12/13 10:32:53;;;;;;;20.10;10.45;;;;;;;;;;4981081;28;20827;-71
2022/12/13 10:35:22;;;;;;;23.77;12.00;;;;;;;;;;4979785;28;20133;-68
2022/12/13 10:37:47;;;;;;;26.90;12.20;;;;;;;;;;4981712;28;20212;-68
2022/12/13 10:40:32;;;;;;;17.67;10.13;;;;;;;;;;4981280;28;20050;-69
2022/12/13 10:43:17;;;;;;;17.02;8.88;;;;;;;;;;4995561;28;20050;-67
2022/12/13 10:45:58;;;;;;;15.38;8.45;;;;;;;;;;4981839;28;20061;-68
2022/12/13 10:48:34;;;;;;;20.95;10.75;;;;;;;;;;4981303;28;20053;-68
2022/12/13 10:51:04;;;;;;;15.65;8.40;;;;;;;;;;4980450;28;20042;-68
2022/12/13 10:53:36;;;;;;;21.10;10.50;;;;;;;;;;4980770;28;20061;-68
2022/12/13 10:56:03;;;;;;;20.75;11.35;;;;;;;;;;4981912;28;20495;-69
2022/12/13 10:58:39;;;;;;;17.55;8.75;;;;;;;;;;4981258;28;20053;-68
2022/12/13 11:01:17;;;;;;;20.48;10.07;;;;;;;;;;4980410;28;20133;-68
2022/12/13 11:03:55;;;;;;;16.95;9.23;;;;;;;;;;4981026;28;20491;-68
2022/12/13 11:06:21;;;;;;;19.98;10.20;;;;;;;;;;4981450;28;20587;-70
2022/12/13 11:08:46;;;;;;;19.10;10.02;;;;;;;;;;4980478;28;20157;-71
2022/12/13 11:11:15;;;;;;;18.35;8.52;;;;;;;;;;4980785;28;20593;-70
2022/12/13 11:13:45;;;;;;;16.90;9.27;;;;;;;;;;4980954;28;20172;-71
2022/12/13 11:16:37;;;;;;;17.60;10.05;;;;;;;;;;4980698;28;20169;-71
2022/12/13 11:19:07;;;;;;;11.38;6.47;;;;;;;;;;4975276;28;20073;-68
2022/12/13 11:21:36;;;;;;;17.20;8.55;;;;;;;;;;4979374;28;20046;-68
2022/12/13 11:24:06;;;;;;;41.40;8.07;;;;;;;;;;4979544;28;20093;-68
2022/12/13 11:26:36;;;;;;;19.52;10.10;;;;;;;;;;4980519;28;20388;-68
2022/12/13 11:29:15;;;;;;;18.40;8.10;;;;;;;;;;4979643;28;20058;-68
2022/12/13 11:31:53;;;;;;;24.15;11.48;;;;;;;;;;4980291;28;20069;-68
2022/12/13 11:34:44;;;;;;;19.88;10.27;;;;;;;;;;4977931;28;20443;-68
2022/12/13 11:37:18;;;;;;;19.63;8.98;;;;;;;;;;4978742;28;20184;-70
2022/12/13 11:39:50;;;;;;;17.42;9.35;;;;;;;;;;4980653;28;20054;-70
2022/12/13 11:42:19;;;;;;;19.10;9.60;;;;;;;;;;4980887;28;20046;-68
2022/12/13 11:45:00;;;;;;;19.80;9.98;;;;;;;;;;4979508;28;20843;-67
2022/12/13 11:47:32;;;;;;;18.45;10.02;;;;;;;;;;4978551;28;20525;-70
2022/12/13 11:49:59;;;;;;;27.83;10.82;;;;;;;;;;4981056;28;20137;-70
2022/12/13 11:52:29;;;;;;;16.50;8.32;;;;;;;;;;4970315;28;20046;-68
2022/12/13 11:54:59;;;;;;;16.00;9.27;;;;;;;;;;4980691;28;20050;-68
2022/12/13 11:58:00;;;;;;;14.15;8.25;;;;;;;;;;4977848;28;20129;-68
2022/12/13 12:00:28;;;;;;;12.82;7.43;;;;;;;;;;4969902;28;20496;-68
2022/12/13 12:03:14;;;;;;;20.13;10.63;;;;;;;;;;4979617;28;20104;-68
2022/12/13 12:05:45;;;;;;;20.35;11.20;;;;;;;;;;4981244;28;20963;-68
2022/12/13 12:08:18;;;;;;;14.15;7.63;;;;;;;;;;4978815;28;20490;-68
2022/12/13 12:10:46;;;;;;;17.45;8.50;;;;;;;;;;4980437;28;20054;-67
2022/12/13 12:13:20;;;;;;;15.15;8.23;;;;;;;;;;4979321;28;20477;-67
2022/12/13 12:16:20;;;;;;;19.25;10.13;;;;;;;;;;4980597;28;20069;-68
2022/12/13 12:18:46;;;;;;;20.02;10.05;;;;;;;;;;4981376;28;20050;-69
2022/12/13 12:21:43;;;;;;;17.67;9.63;;;;;;;;;;4980939;28;20054;-68
2022/12/13 12:24:31;;;;;;;14.90;8.02;;;;;;;;;;4980705;28;20050;-68
2022/12/13 12:27:16;;;;;;;8.20;5.53;;;;;;;;;;4982584;28;20788;-68
2022/12/13 12:29:48;;;;;;;14.65;7.68;;;;;;;;;;4980305;28;20050;-70
2022/12/13 12:32:19;;;;;;;15.10;8.27;;;;;;;;;;4987895;28;20076;-67
2022/12/13 12:34:53;;;;;;;13.60;7.72;;;;;;;;;;4979725;28;20054;-66
2022/12/13 12:37:52;;;;;;;14.20;7.72;;;;;;;;;;4977364;28;20073;-66
2022/12/13 12:40:42;;;;;;;16.67;9.73;;;;;;;;;;4978410;28;20137;-67
2022/12/13 12:43:20;;;;;;;10.82;6.30;;;;;;;;;;4979221;28;20051;-67
2022/12/13 12:46:22;;;;;;;23.02;11.82;;;;;;;;;;4979011;28;20082;-67
2022/12/13 12:49:19;;;;;;;21.73;12.35;;;;;;;;;;4979045;28;20531;-67
2022/12/13 12:51:44;;;;;;;15.60;8.88;;;;;;;;;;4983055;28;20077;-67
2022/12/13 12:54:45;;;;;;;16.13;7.15;;;;;;;;;;4982779;28;20066;-67
2022/12/13 12:57:26;;;;;;;21.30;10.85;;;;;;;;;;4971179;28;20141;-67
2022/12/13 13:00:22;;;;;;;14.02;8.25;;;;;;;;;;4987054;28;20407;-68
2022/12/13 13:03:06;;;;;;;16.85;7.32;;;;;;;;;;4984713;28;20085;-68
2022/12/13 13:05:38;;;;;;;23.33;10.18;;;;;;;;;;4987018;28;20487;-68
2022/12/13 13:08:23;;;;;;;;;;;;;;;;;;4982891;28;20061;-68
2022/12/13 13:10:50;;;;;;;16.42;8.80;;;;;;;;;;4981939;28;19921;-68
2022/12/13 13:13:37;;;;;;;21.63;11.48;;;;;;;;;;4980732;28;20050;-68
2022/12/13 13:16:04;;;;;;;16.35;9.40;;;;;;;;;;4984090;28;20074;-68
2022/12/13 13:18:50;;;;;;;14.55;8.32;;;;;;;;;;4980371;28;20050;-68
2022/12/13 13:21:22;;;;;;;28.80;13.02;;;;;;;;;;4981593;28;20078;-69
2022/12/13 13:23:48;;;;;;;22.50;12.13;;;;;;;;;;4981724;28;20132;-67
2022/12/13 13:26:30;;;;;;;19.38;10.10;;;;;;;;;;4982279;28;20096;-67
2022/12/13 13:29:35;;;;;;;36.85;16.85;;;;;;;;;;4980731;28;20133;-67
2022/12/13 13:32:09;;;;;;;27.40;13.45;;;;;;;;;;4965715;28;20830;-67
2022/12/13 13:34:48;;;;;;;23.45;11.10;;;;;;;;;;4981929;28;20061;-67
2022/12/13 13:37:20;;;;;;;18.15;9.20;;;;;;;;;;4981676;28;20057;-67
2022/12/13 13:39:52;;;;;;;28.92;13.45;;;;;;;;;;4981990;28;20056;-67
2022/12/13 13:42:19;;;;;;;18.80;9.30;;;;;;;;;;4982426;28;20130;-66
2022/12/13 13:44:44;;;;;;;28.95;14.40;;;;;;;;;;4981397;28;20057;-69
2022/12/13 13:47:14;;;;;;;20.83;10.10;;;;;;;;;;4980483;28;20042;-68
2022/12/13 13:50:03;;;;;;;21.35;10.75;;;;;;;;;;4982051;28;20042;-67
2022/12/13 13:52:44;;;;;;;23.73;11.43;;;;;;;;;;4961346;28;20042;-67
2022/12/13 13:55:55;;;;;;;36.83;15.63;;;;;;;;;;4981050;28;20068;-68
2022/12/13 13:58:45;;;;;;;17.52;9.70;;;;;;;;;;4980708;28;20096;-68
2022/12/13 14:01:17;;;;;;;23.48;11.45;;;;;;;;;;4980112;28;20046;-68
2022/12/13 14:04:04;;;;;;;17.60;9.70;;;;;;;;;;4981113;28;20053;-68
2022/12/13 14:06:58;;;;;;;18.95;9.68;;;;;;;;;;4994571;28;20050;-68
2022/12/13 14:09:45;;;;;;;22.27;12.02;;;;;;;;;;4977891;28;20116;-67
2022/12/13 14:12:39;;;;;;;19.90;10.65;;;;;;;;;;4994492;28;20050;-68
2022/12/13 14:15:23;;;;;;;16.23;8.43;;;;;;;;;;4977602;28;20054;-67
2022/12/13 14:18:16;;;;;;;19.38;9.45;;;;;;;;;;4979743;28;20065;-67
2022/12/13 14:20:45;;;;;;;21.73;11.60;;;;;;;;;;4980442;28;20058;-67
2022/12/13 14:23:47;;;;;;;14.65;6.90;;;;;;;;;;4979765;28;20605;-68
2022/12/13 14:26:22;;;;;;;29.15;12.43;;;;;;;;;;4980660;28;20054;-68
2022/12/13 14:28:52;;;;;;;26.10;12.98;;;;;;;;;;4980385;28;20050;-68
2022/12/13 14:31:27;;;;;;;27.70;13.73;;;;;;;;;;4981250;28;20856;-68
2022/12/13 14:33:56;;;;;;;28.40;15.27;;;;;;;;;;4981229;28;20054;-67
2022/12/13 14:36:27;;;;;;;18.92;10.82;;;;;;;;;;4981405;28;20392;-68
2022/12/13 14:39:14;;;;;;;22.13;11.23;;;;;;;;;;4981176;28;20060;-68
2022/12/13 14:41:51;;;;;;;29.63;14.95;;;;;;;;;;4981440;28;20057;-68
2022/12/13 14:44:22;;;;;;;32.70;15.38;;;;;;;;;;4981079;28;20050;-68
2022/12/13 14:46:50;;;;;;;25.98;13.80;;;;;;;;;;4981379;28;20074;-68
2022/12/13 14:49:15;;;;;;;27.05;14.32;;;;;;;;;;4981191;28;20121;-69
2022/12/13 14:51:41;;;;;;;27.05;13.38;;;;;;;;;;4981502;28;20499;-69
2022/12/13 14:54:17;;;;;;;23.15;12.70;;;;;;;;;;4981129;28;20141;-69
2022/12/13 14:56:56;;;;;;;27.10;11.88;;;;;;;;;;4981446;28;20050;-69